createdAt,value
2023-05-11T00:00:06.153Z,13.18
2023-05-11T00:10:11.587Z,13.06
2023-05-11T00:20:14.249Z,13.14
2023-05-11T00:30:18.883Z,13.12
2023-05-11T00:40:21.800Z,13.04
2023-05-11T00:50:26.428Z,13.00
2023-05-11T01:00:29.243Z,13.06
2023-05-11T01:10:39.002Z,13.01
2023-05-11T01:20:45.024Z,12.97
2023-05-11T01:30:50.653Z,13.03
2023-05-11T01:40:57.730Z,12.94
2023-05-11T01:51:03.923Z,12.95
2023-05-11T02:01:07.481Z,12.92
2023-05-11T02:11:13.083Z,13.03
2023-05-11T02:21:17.371Z,12.99
2023-05-11T02:31:26.446Z,12.97
2023-05-11T02:41:31.596Z,12.93
2023-05-11T02:51:38.452Z,12.95
2023-05-11T03:01:41.661Z,12.87
2023-05-11T03:11:46.335Z,12.85
2023-05-11T03:21:50.907Z,12.89
2023-05-11T03:31:56.071Z,12.90
2023-05-11T03:42:01.132Z,12.85
2023-05-11T03:52:06.693Z,12.78
2023-05-11T04:02:09.939Z,12.73
2023-05-11T04:12:14.496Z,12.74
2023-05-11T04:22:17.171Z,12.79
2023-05-11T04:32:21.141Z,12.85
2023-05-11T04:42:23.789Z,12.85
2023-05-11T04:52:27.932Z,12.92
2023-05-11T05:02:30.551Z,13.03
2023-05-11T05:12:34.612Z,13.08
2023-05-11T05:22:37.479Z,13.12
2023-05-11T05:32:42.677Z,13.12
2023-05-11T05:42:45.865Z,13.04
2023-05-11T05:52:49.841Z,13.25
2023-05-11T06:02:52.528Z,13.46
2023-05-11T06:12:56.573Z,13.55
2023-05-11T06:22:59.249Z,13.82
2023-05-11T06:33:03.365Z,14.05
2023-05-11T06:43:06.563Z,14.12
2023-05-11T06:53:10.701Z,14.20
2023-05-11T07:03:13.499Z,14.11
2023-05-11T07:13:17.553Z,13.95
2023-05-11T07:23:20.243Z,13.83
2023-05-11T07:33:24.489Z,13.89
2023-05-11T07:43:27.134Z,13.81
2023-05-11T07:53:31.403Z,14.00
2023-05-11T08:03:34.244Z,14.37
2023-05-11T08:13:38.573Z,14.42
2023-05-11T08:23:42.931Z,14.57
2023-05-11T08:33:48.746Z,15.10
2023-05-11T08:43:51.794Z,15.45
2023-05-11T08:53:57.600Z,15.93
2023-05-11T09:04:00.571Z,15.95
2023-05-11T09:14:04.610Z,15.90
2023-05-11T09:24:07.810Z,15.86
2023-05-11T09:34:14.317Z,17.00
2023-05-11T09:44:17.322Z,17.24
2023-05-11T09:54:22.656Z,17.44
2023-05-11T10:04:30.615Z,17.70
2023-05-11T10:14:34.947Z,17.94
2023-05-11T10:24:38.098Z,18.00
2023-05-11T10:34:43.775Z,17.84
2023-05-11T10:45:01.474Z,17.59
2023-05-11T10:55:16.196Z,17.53
2023-05-11T11:05:34.305Z,17.80
2023-05-11T11:16:16.152Z,17.29
2023-05-11T11:26:50.670Z,17.73
2023-05-11T11:37:13.451Z,18.43
2023-05-11T11:47:18.753Z,18.54
2023-05-11T11:57:44.068Z,19.20
2023-05-11T12:07:50.097Z,19.25
2023-05-11T12:17:52.843Z,19.27
2023-05-11T12:28:00.378Z,19.54
2023-05-11T12:38:03.355Z,19.85
2023-05-11T12:48:08.083Z,20.24
2023-05-11T12:58:13.665Z,20.66
2023-05-11T13:08:20.663Z,20.92
2023-05-11T13:18:23.887Z,20.40
2023-05-11T13:28:27.955Z,21.15
2023-05-11T13:38:30.781Z,20.76
2023-05-11T13:48:34.830Z,20.46
2023-05-11T13:58:37.559Z,20.41
2023-05-11T14:08:41.560Z,19.80
2023-05-11T14:18:44.454Z,19.94
2023-05-11T14:28:48.536Z,19.82
2023-05-11T14:38:51.963Z,19.58
2023-05-11T14:48:56.008Z,19.37
2023-05-11T14:58:59.174Z,19.77
2023-05-11T15:09:03.201Z,19.26
2023-05-11T15:19:06.641Z,19.17
2023-05-11T15:29:11.309Z,19.03
2023-05-11T15:39:14.011Z,18.95
2023-05-11T15:49:17.996Z,18.63
2023-05-11T15:59:20.724Z,18.35
2023-05-11T16:09:24.675Z,18.04
2023-05-11T16:19:27.374Z,17.68
2023-05-11T16:29:32.026Z,17.53
2023-05-11T16:39:34.968Z,16.82
2023-05-11T16:49:39.007Z,16.40
2023-05-11T16:59:41.965Z,16.37
2023-05-11T17:09:46.046Z,16.13
2023-05-11T17:19:48.676Z,15.73
2023-05-11T17:29:52.681Z,15.46
2023-05-11T17:39:55.834Z,15.27
2023-05-11T17:49:59.878Z,15.17
2023-05-11T18:00:02.755Z,15.09
2023-05-11T18:10:08.015Z,14.82
2023-05-11T18:20:11.383Z,14.77
2023-05-11T18:30:15.994Z,14.69
2023-05-11T18:40:19.015Z,14.64
2023-05-11T18:50:24.480Z,14.48
2023-05-11T19:00:27.156Z,14.40
2023-05-11T19:10:31.174Z,14.26
2023-05-11T19:20:34.119Z,14.13
2023-05-11T19:30:38.320Z,14.08
2023-05-11T19:50:48.728Z,13.97
2023-05-11T20:00:51.609Z,14.03
2023-05-11T20:10:55.802Z,13.83
2023-05-11T20:20:58.435Z,13.79
2023-05-11T20:31:02.447Z,13.83
2023-05-11T20:41:05.131Z,13.49
2023-05-11T20:51:09.131Z,13.44
2023-05-11T21:01:12.086Z,13.37
2023-05-11T21:11:16.090Z,13.38
2023-05-11T21:21:18.727Z,13.40
2023-05-11T21:31:22.840Z,13.43
2023-05-11T21:41:25.621Z,13.48
2023-05-11T21:51:30.148Z,13.45
2023-05-11T22:01:32.848Z,13.46
2023-05-11T22:11:39.470Z,13.47
2023-05-11T22:21:42.128Z,13.47
2023-05-11T22:31:46.514Z,13.54
2023-05-11T22:41:49.241Z,13.50
2023-05-11T22:51:53.860Z,13.50
2023-05-11T23:02:01.765Z,13.60
2023-05-11T23:12:06.333Z,13.64
2023-05-11T23:22:09.201Z,13.65
2023-05-11T23:32:13.190Z,13.69
2023-05-11T23:42:16.006Z,13.71
2023-05-11T23:52:20.010Z,13.67
